sensor_id;sensor_type;location;lat;lon;timestamp;pressure;altitude;pressure_sealevel;temperature;humidity
54854;BME280;40747;49.480;8.658;2023-01-15T00:02:04;98991.88;;;9.50;100.00
54854;BME280;40747;49.480;8.658;2023-01-15T00:04:29;99001.22;;;9.56;100.00
54854;BME280;40747;49.480;8.658;2023-01-15T00:06:55;98998.13;;;9.48;100.00
54854;BME280;40747;49.480;8.658;2023-01-15T00:09:20;98987.63;;;9.48;100.00
54854;BME280;40747;49.480;8.658;2023-01-15T00:11:45;98991.63;;;9.55;100.00
54854;BME280;40747;49.480;8.658;2023-01-15T00:14:10;98978.38;;;9.58;100.00
54854;BME280;40747;49.480;8.658;2023-01-15T00:16:36;98981.91;;;9.57;100.00
54854;BME280;40747;49.480;8.658;2023-01-15T00:19:04;98975.41;;;9.47;100.00
54854;BME280;40747;49.480;8.658;2023-01-15T00:21:32;98970.84;;;9.50;100.00
54854;BME280;40747;49.480;8.658;2023-01-15T00:23:58;98960.25;;;9.52;100.00
54854;BME280;40747;49.480;8.658;2023-01-15T00:26:42;98958.72;;;9.48;100.00
54854;BME280;40747;49.480;8.658;2023-01-15T00:29:26;98948.13;;;9.49;100.00
54854;BME280;40747;49.480;8.658;2023-01-15T00:31:57;98935.88;;;9.48;100.00
54854;BME280;40747;49.480;8.658;2023-01-15T00:34:23;98930.56;;;9.50;100.00
54854;BME280;40747;49.480;8.658;2023-01-15T00:36:49;98920.63;;;9.57;100.00
54854;BME280;40747;49.480;8.658;2023-01-15T00:39:14;98914.50;;;9.56;100.00
54854;BME280;40747;49.480;8.658;2023-01-15T00:41:39;98914.56;;;9.55;100.00
54854;BME280;40747;49.480;8.658;2023-01-15T00:44:05;98914.50;;;9.56;100.00
54854;BME280;40747;49.480;8.658;2023-01-15T00:46:30;98918.53;;;9.63;100.00
54854;BME280;40747;49.480;8.658;2023-01-15T00:48:55;98902.88;;;9.60;100.00
54854;BME280;40747;49.480;8.658;2023-01-15T00:51:20;98908.00;;;9.63;100.00
54854;BME280;40747;49.480;8.658;2023-01-15T00:53:46;98910.09;;;9.57;100.00
54854;BME280;40747;49.480;8.658;2023-01-15T00:56:11;98907.22;;;9.61;100.00
54854;BME280;40747;49.480;8.658;2023-01-15T00:58:36;98904.16;;;9.71;100.00
54854;BME280;40747;49.480;8.658;2023-01-15T01:01:02;98908.72;;;9.67;100.00
54854;BME280;40747;49.480;8.658;2023-01-15T01:03:27;98910.78;;;9.60;100.00
54854;BME280;40747;49.480;8.658;2023-01-15T01:05:59;98898.19;;;9.67;100.00
54854;BME280;40747;49.480;8.658;2023-01-15T01:08:24;98905.84;;;9.72;100.00
54854;BME280;40747;49.480;8.658;2023-01-15T01:11:00;98898.41;;;9.62;100.00
54854;BME280;40747;49.480;8.658;2023-01-15T01:13:25;98903.59;;;9.64;100.00
54854;BME280;40747;49.480;8.658;2023-01-15T01:15:50;98902.38;;;9.71;100.00
54854;BME280;40747;49.480;8.658;2023-01-15T01:18:16;98905.47;;;9.62;100.00
54854;BME280;40747;49.480;8.658;2023-01-15T01:20:41;98898.50;;;9.61;100.00
54854;BME280;40747;49.480;8.658;2023-01-15T01:23:06;98891.75;;;9.55;100.00
54854;BME280;40747;49.480;8.658;2023-01-15T01:25:31;98892.25;;;9.63;100.00
54854;BME280;40747;49.480;8.658;2023-01-15T01:27:57;98897.31;;;9.66;100.00
54854;BME280;40747;49.480;8.658;2023-01-15T01:30:22;98888.69;;;9.64;100.00
54854;BME280;40747;49.480;8.658;2023-01-15T01:32:48;98889.81;;;9.59;100.00
54854;BME280;40747;49.480;8.658;2023-01-15T01:35:13;98882.84;;;9.58;100.00
54854;BME280;40747;49.480;8.658;2023-01-15T01:37:38;98892.53;;;9.57;100.00
54854;BME280;40747;49.480;8.658;2023-01-15T01:40:04;98889.00;;;9.58;100.00
54854;BME280;40747;49.480;8.658;2023-01-15T01:42:29;98881.84;;;9.60;100.00
54854;BME280;40747;49.480;8.658;2023-01-15T01:45:19;98885.34;;;9.61;100.00
54854;BME280;40747;49.480;8.658;2023-01-15T01:47:49;98872.69;;;9.51;100.00
54854;BME280;40747;49.480;8.658;2023-01-15T01:50:15;98874.75;;;9.62;100.00
54854;BME280;40747;49.480;8.658;2023-01-15T01:52:47;98886.28;;;9.60;100.00
54854;BME280;40747;49.480;8.658;2023-01-15T01:55:15;98883.56;;;9.61;100.00
54854;BME280;40747;49.480;8.658;2023-01-15T01:57:43;98887.13;;;9.60;100.00
54854;BME280;40747;49.480;8.658;2023-01-15T02:00:09;98873.44;;;9.54;100.00
54854;BME280;40747;49.480;8.658;2023-01-15T02:02:36;98874.91;;;9.59;100.00
54854;BME280;40747;49.480;8.658;2023-01-15T02:05:03;98879.47;;;9.56;100.00
54854;BME280;40747;49.480;8.658;2023-01-15T02:07:28;98878.59;;;9.55;100.00
54854;BME280;40747;49.480;8.658;2023-01-15T02:09:57;98871.50;;;9.57;100.00
54854;BME280;40747;49.480;8.658;2023-01-15T02:12:34;98867.97;;;9.58;100.00
54854;BME280;40747;49.480;8.658;2023-01-15T02:15:06;98862.78;;;9.57;100.00
54854;BME280;40747;49.480;8.658;2023-01-15T02:17:50;98864.84;;;9.50;100.00
54854;BME280;40747;49.480;8.658;2023-01-15T02:20:27;98858.13;;;9.44;100.00
54854;BME280;40747;49.480;8.658;2023-01-15T02:23:01;98858.66;;;9.51;100.00
54854;BME280;40747;49.480;8.658;2023-01-15T02:28:31;98850.66;;;9.54;100.00
54854;BME280;40747;49.480;8.658;2023-01-15T02:31:08;98850.56;;;9.56;100.00
54854;BME280;40747;49.480;8.658;2023-01-15T02:33:40;98849.06;;;9.50;100.00
54854;BME280;40747;49.480;8.658;2023-01-15T02:36:11;98850.88;;;9.49;100.00
54854;BME280;40747;49.480;8.658;2023-01-15T02:38:44;98853.19;;;9.56;100.00
54854;BME280;40747;49.480;8.658;2023-01-15T02:41:11;98851.31;;;9.58;100.00
54854;BME280;40747;49.480;8.658;2023-01-15T02:43:44;98848.22;;;9.49;100.00
54854;BME280;40747;49.480;8.658;2023-01-15T02:46:13;98852.78;;;9.46;100.00
54854;BME280;40747;49.480;8.658;2023-01-15T02:48:40;98847.16;;;9.54;100.00
54854;BME280;40747;49.480;8.658;2023-01-15T02:51:12;98850.66;;;9.54;100.00
54854;BME280;40747;49.480;8.658;2023-01-15T02:53:41;98848.78;;;9.56;100.00
54854;BME280;40747;49.480;8.658;2023-01-15T02:56:12;98843.81;;;9.50;100.00
54854;BME280;40747;49.480;8.658;2023-01-15T02:58:40;98846.44;;;9.50;100.00
54854;BME280;40747;49.480;8.658;2023-01-15T03:01:10;98858.97;;;9.45;100.00
54854;BME280;40747;49.480;8.658;2023-01-15T03:06:41;98861.75;;;9.42;100.00
54854;BME280;40747;49.480;8.658;2023-01-15T03:09:08;98865.94;;;9.46;100.00
54854;BME280;40747;49.480;8.658;2023-01-15T03:11:38;98869.63;;;9.42;100.00
54854;BME280;40747;49.480;8.658;2023-01-15T03:14:14;98873.06;;;9.44;100.00
54854;BME280;40747;49.480;8.658;2023-01-15T03:16:48;98889.75;;;9.43;100.00
54854;BME280;40747;49.480;8.658;2023-01-15T03:24:24;98922.16;;;8.86;100.00
54854;BME280;40747;49.480;8.658;2023-01-15T03:26:52;98916.28;;;8.81;100.00
54854;BME280;40747;49.480;8.658;2023-01-15T03:29:18;98924.38;;;8.76;100.00
54854;BME280;40747;49.480;8.658;2023-01-15T03:31:44;98931.25;;;8.60;100.00
54854;BME280;40747;49.480;8.658;2023-01-15T03:34:10;98934.22;;;8.52;100.00
54854;BME280;40747;49.480;8.658;2023-01-15T03:36:35;98939.88;;;8.62;100.00
54854;BME280;40747;49.480;8.658;2023-01-15T03:39:01;98930.34;;;8.40;100.00
54854;BME280;40747;49.480;8.658;2023-01-15T03:41:48;98940.63;;;8.45;100.00
54854;BME280;40747;49.480;8.658;2023-01-15T03:44:35;98935.25;;;8.27;100.00
54854;BME280;40747;49.480;8.658;2023-01-15T03:47:08;98928.97;;;8.31;100.00
54854;BME280;40747;49.480;8.658;2023-01-15T03:49:55;98943.66;;;8.35;100.00
54854;BME280;40747;49.480;8.658;2023-01-15T03:52:43;98950.81;;;8.11;100.00
54854;BME280;40747;49.480;8.658;2023-01-15T03:55:16;98942.09;;;8.11;100.00
54854;BME280;40747;49.480;8.658;2023-01-15T03:57:48;98939.41;;;7.92;100.00
54854;BME280;40747;49.480;8.658;2023-01-15T04:00:22;98936.22;;;7.83;100.00
54854;BME280;40747;49.480;8.658;2023-01-15T04:02:49;98953.69;;;8.05;100.00
54854;BME280;40747;49.480;8.658;2023-01-15T04:05:17;98941.88;;;7.95;100.00
54854;BME280;40747;49.480;8.658;2023-01-15T04:07:44;98935.88;;;7.70;100.00
54854;BME280;40747;49.480;8.658;2023-01-15T04:10:11;98956.16;;;7.87;100.00
54854;BME280;40747;49.480;8.658;2023-01-15T04:12:36;98940.31;;;7.68;100.00
54854;BME280;40747;49.480;8.658;2023-01-15T04:15:02;98962.25;;;7.88;100.00
54854;BME280;40747;49.480;8.658;2023-01-15T04:17:27;98947.28;;;7.69;100.00
54854;BME280;40747;49.480;8.658;2023-01-15T04:19:53;98952.75;;;7.63;100.00
54854;BME280;40747;49.480;8.658;2023-01-15T04:22:18;98948.00;;;7.73;100.00
54854;BME280;40747;49.480;8.658;2023-01-15T04:24:43;98965.06;;;7.83;100.00
54854;BME280;40747;49.480;8.658;2023-01-15T04:27:08;98970.13;;;7.88;100.00
54854;BME280;40747;49.480;8.658;2023-01-15T04:29:34;98965.13;;;7.82;100.00
54854;BME280;40747;49.480;8.658;2023-01-15T04:31:59;98980.53;;;7.90;100.00
54854;BME280;40747;49.480;8.658;2023-01-15T04:34:26;98984.22;;;7.85;100.00
54854;BME280;40747;49.480;8.658;2023-01-15T04:36:52;98978.19;;;7.83;100.00
54854;BME280;40747;49.480;8.658;2023-01-15T04:39:17;98990.31;;;7.86;100.00
54854;BME280;40747;49.480;8.658;2023-01-15T04:41:43;98970.78;;;7.93;100.00
54854;BME280;40747;49.480;8.658;2023-01-15T04:44:27;98977.09;;;7.89;100.00
54854;BME280;40747;49.480;8.658;2023-01-15T04:46:54;98992.25;;;7.81;100.00
54854;BME280;40747;49.480;8.658;2023-01-15T04:49:19;98987.94;;;7.80;100.00
54854;BME280;40747;49.480;8.658;2023-01-15T04:51:45;98996.97;;;7.73;100.00
54854;BME280;40747;49.480;8.658;2023-01-15T04:54:11;98998.41;;;7.80;100.00
54854;BME280;40747;49.480;8.658;2023-01-15T04:56:43;98990.69;;;7.54;100.00
54854;BME280;40747;49.480;8.658;2023-01-15T04:59:08;98991.72;;;7.50;100.00
54854;BME280;40747;49.480;8.658;2023-01-15T05:01:34;98991.72;;;7.50;100.00
54854;BME280;40747;49.480;8.658;2023-01-15T05:04:00;98992.44;;;7.54;100.00
54854;BME280;40747;49.480;8.658;2023-01-15T05:06:27;99006.22;;;7.59;100.00
54854;BME280;40747;49.480;8.658;2023-01-15T05:08:52;99000.38;;;7.52;100.00
54854;BME280;40747;49.480;8.658;2023-01-15T05:11:18;99004.88;;;7.49;100.00
54854;BME280;40747;49.480;8.658;2023-01-15T05:13:43;99013.41;;;7.32;100.00
54854;BME280;40747;49.480;8.658;2023-01-15T05:16:15;99013.34;;;7.33;100.00
54854;BME280;40747;49.480;8.658;2023-01-15T05:18:42;99026.44;;;7.33;100.00
54854;BME280;40747;49.480;8.658;2023-01-15T05:23:43;99018.50;;;7.35;100.00
54854;BME280;40747;49.480;8.658;2023-01-15T05:26:08;99014.16;;;7.35;100.00
54854;BME280;40747;49.480;8.658;2023-01-15T05:28:33;99027.19;;;7.37;100.00
54854;BME280;40747;49.480;8.658;2023-01-15T05:31:05;99029.59;;;7.42;100.00
54854;BME280;40747;49.480;8.658;2023-01-15T05:33:31;99026.72;;;7.49;100.00
54854;BME280;40747;49.480;8.658;2023-01-15T05:36:00;99026.75;;;7.48;100.00
54854;BME280;40747;49.480;8.658;2023-01-15T05:38:26;99027.84;;;7.18;100.00
54854;BME280;40747;49.480;8.658;2023-01-15T05:40:51;99016.31;;;7.00;100.00
54854;BME280;40747;49.480;8.658;2023-01-15T05:43:16;99027.00;;;6.94;100.00
54854;BME280;40747;49.480;8.658;2023-01-15T05:45:41;99038.13;;;7.01;100.00
54854;BME280;40747;49.480;8.658;2023-01-15T05:48:07;99038.91;;;7.03;100.00
54854;BME280;40747;49.480;8.658;2023-01-15T05:50:32;99039.59;;;7.08;100.00
54854;BME280;40747;49.480;8.658;2023-01-15T05:52:57;99025.44;;;7.14;100.00
54854;BME280;40747;49.480;8.658;2023-01-15T05:55:23;99035.56;;;7.23;100.00
54854;BME280;40747;49.480;8.658;2023-01-15T05:57:48;99049.19;;;7.31;100.00
54854;BME280;40747;49.480;8.658;2023-01-15T06:00:14;99049.34;;;7.28;100.00
54854;BME280;40747;49.480;8.658;2023-01-15T06:02:39;99035.56;;;7.23;100.00
54854;BME280;40747;49.480;8.658;2023-01-15T06:05:05;99030.38;;;6.98;100.00
54854;BME280;40747;49.480;8.658;2023-01-15T06:07:30;99024.66;;;6.86;100.00
54854;BME280;40747;49.480;8.658;2023-01-15T06:09:56;99028.38;;;6.81;100.00
54854;BME280;40747;49.480;8.658;2023-01-15T06:12:21;99033.94;;;6.95;100.00
54854;BME280;40747;49.480;8.658;2023-01-15T06:14:46;99045.03;;;7.03;100.00
54854;BME280;40747;49.480;8.658;2023-01-15T06:17:11;99056.16;;;7.09;100.00
54854;BME280;40747;49.480;8.658;2023-01-15T06:19:39;99051.44;;;7.18;100.00
54854;BME280;40747;49.480;8.658;2023-01-15T06:22:04;99066.47;;;7.13;100.00
54854;BME280;40747;49.480;8.658;2023-01-15T06:24:29;99072.44;;;7.17;100.00
54854;BME280;40747;49.480;8.658;2023-01-15T06:26:54;99098.28;;;7.26;100.00
54854;BME280;40747;49.480;8.658;2023-01-15T06:29:20;99087.41;;;7.13;100.00
54854;BME280;40747;49.480;8.658;2023-01-15T06:31:45;99101.13;;;6.96;100.00
54854;BME280;40747;49.480;8.658;2023-01-15T06:34:11;99103.16;;;6.63;100.00
54854;BME280;40747;49.480;8.658;2023-01-15T06:36:36;99105.00;;;6.59;100.00
54854;BME280;40747;49.480;8.658;2023-01-15T06:39:02;99119.31;;;6.49;100.00
54854;BME280;40747;49.480;8.658;2023-01-15T06:41:27;99123.03;;;6.42;100.00
54854;BME280;40747;49.480;8.658;2023-01-15T06:44:13;99111.84;;;6.36;100.00
54854;BME280;40747;49.480;8.658;2023-01-15T06:46:57;99126.75;;;6.34;100.00
54854;BME280;40747;49.480;8.658;2023-01-15T06:49:44;99109.34;;;6.33;100.00
54854;BME280;40747;49.480;8.658;2023-01-15T06:52:09;99121.28;;;6.42;100.00
54854;BME280;40747;49.480;8.658;2023-01-15T06:54:34;99128.88;;;6.23;100.00
54854;BME280;40747;49.480;8.658;2023-01-15T06:57:00;99136.59;;;6.26;100.00
54854;BME280;40747;49.480;8.658;2023-01-15T06:59:25;99136.41;;;6.32;100.00
54854;BME280;40747;49.480;8.658;2023-01-15T07:01:50;99148.50;;;6.08;100.00
54854;BME280;40747;49.480;8.658;2023-01-15T07:04:16;99154.38;;;6.15;100.00
54854;BME280;40747;49.480;8.658;2023-01-15T07:06:41;99175.22;;;6.18;100.00
54854;BME280;40747;49.480;8.658;2023-01-15T07:09:07;99182.00;;;6.23;100.00
54854;BME280;40747;49.480;8.658;2023-01-15T07:11:32;99185.28;;;6.30;100.00
54854;BME280;40747;49.480;8.658;2023-01-15T07:13:58;99192.16;;;6.33;100.00
54854;BME280;40747;49.480;8.658;2023-01-15T07:16:35;99195.22;;;6.19;100.00
54854;BME280;40747;49.480;8.658;2023-01-15T07:19:01;99198.13;;;6.10;100.00
54854;BME280;40747;49.480;8.658;2023-01-15T07:21:27;99217.25;;;6.12;100.00
54854;BME280;40747;49.480;8.658;2023-01-15T07:23:53;99225.84;;;5.52;100.00
54854;BME280;40747;49.480;8.658;2023-01-15T07:26:18;99199.25;;;5.38;100.00
54854;BME280;40747;49.480;8.658;2023-01-15T07:28:44;99231.06;;;5.21;100.00
54854;BME280;40747;49.480;8.658;2023-01-15T07:31:09;99224.00;;;5.24;100.00
54854;BME280;40747;49.480;8.658;2023-01-15T07:33:35;99219.22;;;5.40;100.00
54854;BME280;40747;49.480;8.658;2023-01-15T07:36:04;99231.44;;;5.40;100.00
54854;BME280;40747;49.480;8.658;2023-01-15T07:38:30;99234.72;;;5.47;100.00
54854;BME280;40747;49.480;8.658;2023-01-15T07:40:56;99236.19;;;5.57;100.00
54854;BME280;40747;49.480;8.658;2023-01-15T07:43:39;99232.84;;;5.52;100.00
54854;BME280;40747;49.480;8.658;2023-01-15T07:46:23;99238.06;;;5.52;100.00
54854;BME280;40747;49.480;8.658;2023-01-15T07:49:09;99252.69;;;5.57;100.00
54854;BME280;40747;49.480;8.658;2023-01-15T07:51:53;99257.66;;;5.68;100.00
54854;BME280;40747;49.480;8.658;2023-01-15T07:54:18;99266.38;;;5.67;100.00
54854;BME280;40747;49.480;8.658;2023-01-15T07:56:43;99268.59;;;5.50;100.00
54854;BME280;40747;49.480;8.658;2023-01-15T07:59:09;99267.47;;;5.58;100.00
54854;BME280;40747;49.480;8.658;2023-01-15T08:01:34;99274.38;;;5.63;100.00
54854;BME280;40747;49.480;8.658;2023-01-15T08:09:02;99285.94;;;5.52;100.00
54854;BME280;40747;49.480;8.658;2023-01-15T08:11:27;99306.66;;;5.58;100.00
54854;BME280;40747;49.480;8.658;2023-01-15T08:14:11;99295.22;;;5.64;100.00
54854;BME280;40747;49.480;8.658;2023-01-15T08:16:55;99297.94;;;5.60;100.00
54854;BME280;40747;49.480;8.658;2023-01-15T08:19:20;99300.19;;;5.40;100.00
54854;BME280;40747;49.480;8.658;2023-01-15T08:21:46;99304.75;;;5.32;100.00
54854;BME280;40747;49.480;8.658;2023-01-15T08:24:12;99296.72;;;5.40;100.00
54854;BME280;40747;49.480;8.658;2023-01-15T08:26:37;99297.03;;;5.28;100.00
54854;BME280;40747;49.480;8.658;2023-01-15T08:29:02;99318.47;;;5.40;100.00
54854;BME280;40747;49.480;8.658;2023-01-15T08:31:28;99308.69;;;5.47;100.00
54854;BME280;40747;49.480;8.658;2023-01-15T08:33:53;99315.78;;;5.42;100.00
54854;BME280;40747;49.480;8.658;2023-01-15T08:36:18;99319.41;;;5.38;100.00
54854;BME280;40747;49.480;8.658;2023-01-15T08:38:44;99315.00;;;5.40;100.00
54854;BME280;40747;49.480;8.658;2023-01-15T08:41:09;99312.38;;;5.40;100.00
54854;BME280;40747;49.480;8.658;2023-01-15T08:43:34;99316.91;;;5.33;100.00
54854;BME280;40747;49.480;8.658;2023-01-15T08:46:03;99319.28;;;5.43;100.00
54854;BME280;40747;49.480;8.658;2023-01-15T08:48:29;99315.94;;;5.37;100.00
54854;BME280;40747;49.480;8.658;2023-01-15T08:50:55;99322.84;;;5.40;100.00
54854;BME280;40747;49.480;8.658;2023-01-15T08:53:21;99319.53;;;5.33;100.00
54854;BME280;40747;49.480;8.658;2023-01-15T08:55:47;99334.47;;;5.28;100.00
54854;BME280;40747;49.480;8.658;2023-01-15T08:58:13;99332.59;;;5.33;100.00
54854;BME280;40747;49.480;8.658;2023-01-15T09:00:38;99341.84;;;5.45;100.00
54854;BME280;40747;49.480;8.658;2023-01-15T09:03:03;99337.00;;;5.64;100.00
54854;BME280;40747;49.480;8.658;2023-01-15T09:05:29;99345.25;;;5.82;100.00
54854;BME280;40747;49.480;8.658;2023-01-15T09:07:54;99352.81;;;5.93;100.00
54854;BME280;40747;49.480;8.658;2023-01-15T09:10:21;99368.41;;;5.96;100.00
54854;BME280;40747;49.480;8.658;2023-01-15T09:12:46;99364.56;;;5.76;100.00
54854;BME280;40747;49.480;8.658;2023-01-15T09:15:11;99372.16;;;5.85;100.00
54854;BME280;40747;49.480;8.658;2023-01-15T09:17:36;99378.94;;;5.93;100.00
54854;BME280;40747;49.480;8.658;2023-01-15T09:20:06;99378.78;;;6.00;100.00
54854;BME280;40747;49.480;8.658;2023-01-15T09:22:31;99385.00;;;5.95;100.00
54854;BME280;40747;49.480;8.658;2023-01-15T09:24:57;99389.03;;;5.73;100.00
54854;BME280;40747;49.480;8.658;2023-01-15T09:27:22;99392.47;;;5.74;100.00
54854;BME280;40747;49.480;8.658;2023-01-15T09:29:48;99390.81;;;5.71;100.00
54854;BME280;40747;49.480;8.658;2023-01-15T09:32:13;99395.78;;;5.82;100.00
54854;BME280;40747;49.480;8.658;2023-01-15T09:34:38;99394.91;;;5.82;100.00
54854;BME280;40747;49.480;8.658;2023-01-15T09:37:04;99400.69;;;5.93;100.00
54854;BME280;40747;49.480;8.658;2023-01-15T09:39:29;99408.34;;;6.02;100.00
54854;BME280;40747;49.480;8.658;2023-01-15T09:42:18;99412.16;;;5.89;100.00
54854;BME280;40747;49.480;8.658;2023-01-15T09:45:22;99415.66;;;5.88;100.00
54854;BME280;40747;49.480;8.658;2023-01-15T09:56:30;99421.56;;;5.96;100.00
54854;BME280;40747;49.480;8.658;2023-01-15T09:58:59;99433.72;;;5.97;100.00
54854;BME280;40747;49.480;8.658;2023-01-15T10:01:30;99433.41;;;6.10;100.00
54854;BME280;40747;49.480;8.658;2023-01-15T10:04:10;99429.00;;;6.12;100.00
54854;BME280;40747;49.480;8.658;2023-01-15T10:06:42;99432.63;;;6.07;100.00
54854;BME280;40747;49.480;8.658;2023-01-15T10:09:20;99443.09;;;6.06;100.00
54854;BME280;40747;49.480;8.658;2023-01-15T10:11:55;99456.31;;;6.01;100.00
54854;BME280;40747;49.480;8.658;2023-01-15T10:14:49;99454.59;;;6.00;100.00
54854;BME280;40747;49.480;8.658;2023-01-15T10:17:24;99450.38;;;5.93;100.00
54854;BME280;40747;49.480;8.658;2023-01-15T10:19:51;99461.59;;;5.98;100.00
54854;BME280;40747;49.480;8.658;2023-01-15T10:22:30;99469.50;;;5.95;100.00
54854;BME280;40747;49.480;8.658;2023-01-15T10:24:57;99465.44;;;5.83;100.00
54854;BME280;40747;49.480;8.658;2023-01-15T10:27:25;99462.84;;;5.82;100.00
54854;BME280;40747;49.480;8.658;2023-01-15T10:32:50;99465.41;;;5.85;100.00
54854;BME280;40747;49.480;8.658;2023-01-15T10:37:46;99473.09;;;5.89;100.00
54854;BME280;40747;49.480;8.658;2023-01-15T10:45:35;99529.53;;;5.21;100.00
54854;BME280;40747;49.480;8.658;2023-01-15T10:51:22;99541.75;;;4.30;100.00
54854;BME280;40747;49.480;8.658;2023-01-15T10:54:00;99536.56;;;4.27;100.00
54854;BME280;40747;49.480;8.658;2023-01-15T10:56:40;99523.41;;;4.36;100.00
54854;BME280;40747;49.480;8.658;2023-01-15T11:02:21;99527.66;;;4.40;100.00
54854;BME280;40747;49.480;8.658;2023-01-15T11:04:47;99512.06;;;4.39;100.00
54854;BME280;40747;49.480;8.658;2023-01-15T11:07:13;99530.06;;;4.51;100.00
54854;BME280;40747;49.480;8.658;2023-01-15T11:09:40;99534.38;;;4.52;100.00
54854;BME280;40747;49.480;8.658;2023-01-15T11:12:24;99537.06;;;4.49;100.00
54854;BME280;40747;49.480;8.658;2023-01-15T11:14:51;99537.91;;;4.50;100.00
54854;BME280;40747;49.480;8.658;2023-01-15T11:17:43;99531.13;;;4.42;100.00
54854;BME280;40747;49.480;8.658;2023-01-15T11:20:30;99531.19;;;4.38;100.00
54854;BME280;40747;49.480;8.658;2023-01-15T11:22:57;99538.94;;;4.41;100.00
54854;BME280;40747;49.480;8.658;2023-01-15T11:25:31;99523.59;;;4.24;100.00
54854;BME280;40747;49.480;8.658;2023-01-15T11:28:04;99533.94;;;4.30;100.00
54854;BME280;40747;49.480;8.658;2023-01-15T11:30:35;99511.44;;;4.23;100.00
54854;BME280;40747;49.480;8.658;2023-01-15T11:33:03;99522.72;;;4.25;100.00
54854;BME280;40747;49.480;8.658;2023-01-15T11:35:29;99532.34;;;4.21;100.00
54854;BME280;40747;49.480;8.658;2023-01-15T11:38:14;99520.06;;;4.28;100.00
54854;BME280;40747;49.480;8.658;2023-01-15T11:40:53;99526.06;;;4.32;100.00
54854;BME280;40747;49.480;8.658;2023-01-15T11:43:24;99527.97;;;4.23;100.00
54854;BME280;40747;49.480;8.658;2023-01-15T11:46:27;99527.13;;;4.21;100.00
54854;BME280;40747;49.480;8.658;2023-01-15T11:49:19;99544.84;;;4.01;100.00
54854;BME280;40747;49.480;8.658;2023-01-15T11:52:07;99552.59;;;4.05;100.00
54854;BME280;40747;49.480;8.658;2023-01-15T11:54:36;99552.59;;;4.05;100.00
54854;BME280;40747;49.480;8.658;2023-01-15T11:57:03;99546.41;;;4.11;100.00
54854;BME280;40747;49.480;8.658;2023-01-15T11:59:29;99549.97;;;4.07;100.00
54854;BME280;40747;49.480;8.658;2023-01-15T12:01:58;99549.25;;;3.97;100.00
54854;BME280;40747;49.480;8.658;2023-01-15T12:04:37;99540.78;;;3.83;100.00
54854;BME280;40747;49.480;8.658;2023-01-15T12:07:04;99552.66;;;4.01;100.00
54854;BME280;40747;49.480;8.658;2023-01-15T12:15:19;99561.41;;;3.98;100.00
54854;BME280;40747;49.480;8.658;2023-01-15T12:20:23;99551.63;;;4.11;100.00
54854;BME280;40747;49.480;8.658;2023-01-15T12:23:28;99548.69;;;4.30;100.00
54854;BME280;40747;49.480;8.658;2023-01-15T12:26:22;99539.97;;;4.32;100.00
54854;BME280;40747;49.480;8.658;2023-01-15T12:34:25;99531.94;;;4.90;100.00
54854;BME280;40747;49.480;8.658;2023-01-15T12:37:28;99527.09;;;5.14;100.00
54854;BME280;40747;49.480;8.658;2023-01-15T12:40:16;99518.94;;;5.29;100.00
54854;BME280;40747;49.480;8.658;2023-01-15T12:42:45;99525.84;;;5.32;100.00
54854;BME280;40747;49.480;8.658;2023-01-15T12:45:35;99524.09;;;5.32;100.00
54854;BME280;40747;49.480;8.658;2023-01-15T12:48:13;99502.63;;;5.19;100.00
54854;BME280;40747;49.480;8.658;2023-01-15T12:50:43;99521.16;;;5.07;100.00
54854;BME280;40747;49.480;8.658;2023-01-15T12:56:20;99500.44;;;4.99;100.00
54854;BME280;40747;49.480;8.658;2023-01-15T12:59:14;99495.13;;;5.02;100.00
54854;BME280;40747;49.480;8.658;2023-01-15T13:07:02;99480.69;;;5.27;100.00
54854;BME280;40747;49.480;8.658;2023-01-15T13:09:39;99483.13;;;5.34;100.00
54854;BME280;40747;49.480;8.658;2023-01-15T13:12:12;99475.88;;;5.47;100.00
54854;BME280;40747;49.480;8.658;2023-01-15T13:14:38;99477.59;;;5.48;100.00
54854;BME280;40747;49.480;8.658;2023-01-15T13:22:33;99479.81;;;5.65;100.00
54854;BME280;40747;49.480;8.658;2023-01-15T13:25:20;99484.91;;;5.70;100.00
54854;BME280;40747;49.480;8.658;2023-01-15T13:28:24;99489.22;;;5.72;100.00
54854;BME280;40747;49.480;8.658;2023-01-15T13:31:03;99504.28;;;5.99;100.00
54854;BME280;40747;49.480;8.658;2023-01-15T13:33:43;99517.09;;;6.10;100.00
54854;BME280;40747;49.480;8.658;2023-01-15T13:36:17;99518.72;;;6.14;100.00
54854;BME280;40747;49.480;8.658;2023-01-15T13:38:46;99523.16;;;6.12;100.00
54854;BME280;40747;49.480;8.658;2023-01-15T13:41:33;99523.53;;;6.31;100.00
54854;BME280;40747;49.480;8.658;2023-01-15T13:44:22;99531.03;;;6.43;100.00
54854;BME280;40747;49.480;8.658;2023-01-15T13:47:09;99532.59;;;6.50;100.00
54854;BME280;40747;49.480;8.658;2023-01-15T13:49:39;99532.53;;;6.53;100.00
54854;BME280;40747;49.480;8.658;2023-01-15T13:52:20;99539.41;;;6.58;99.84
54854;BME280;40747;49.480;8.658;2023-01-15T13:54:46;99541.66;;;6.38;99.13
54854;BME280;40747;49.480;8.658;2023-01-15T13:57:31;99545.97;;;6.39;99.51
54854;BME280;40747;49.480;8.658;2023-01-15T14:00:05;99544.50;;;6.29;97.79
54854;BME280;40747;49.480;8.658;2023-01-15T14:02:34;99559.13;;;6.36;99.08
54854;BME280;40747;49.480;8.658;2023-01-15T14:05:28;99571.97;;;6.46;97.68
54854;BME280;40747;49.480;8.658;2023-01-15T14:07:54;99568.75;;;6.36;98.17
54854;BME280;40747;49.480;8.658;2023-01-15T14:21:04;99558.88;;;6.46;98.35
54854;BME280;40747;49.480;8.658;2023-01-15T14:35:00;99566.56;;;6.52;96.50
54854;BME280;40747;49.480;8.658;2023-01-15T14:37:32;99569.47;;;6.41;95.77
54854;BME280;40747;49.480;8.658;2023-01-15T14:40:02;99561.81;;;6.33;96.53
54854;BME280;40747;49.480;8.658;2023-01-15T14:45:23;99572.28;;;6.33;96.07
54854;BME280;40747;49.480;8.658;2023-01-15T14:47:55;99577.38;;;6.39;97.49
54854;BME280;40747;49.480;8.658;2023-01-15T14:50:36;99586.03;;;6.42;95.82
54854;BME280;40747;49.480;8.658;2023-01-15T14:53:15;99581.69;;;6.40;94.06
54854;BME280;40747;49.480;8.658;2023-01-15T15:01:43;99588.44;;;6.15;95.57